sensor_id;sensor_type;location;lat;lon;timestamp;P1;durP1;ratioP1;P2;durP2;ratioP2
62332;SDS011;48624;49.812;8.562;2023-02-28T00:00:11;3.93;;;1.77;;
62332;SDS011;48624;49.812;8.562;2023-02-28T00:02:38;2.90;;;1.80;;
62332;SDS011;48624;49.812;8.562;2023-02-28T00:05:05;4.03;;;1.67;;
62332;SDS011;48624;49.812;8.562;2023-02-28T00:07:33;3.13;;;2.00;;
62332;SDS011;48624;49.812;8.562;2023-02-28T00:09:59;2.10;;;1.90;;
62332;SDS011;48624;49.812;8.562;2023-02-28T00:12:25;3.00;;;2.07;;
62332;SDS011;48624;49.812;8.562;2023-02-28T00:14:50;3.17;;;2.10;;
62332;SDS011;48624;49.812;8.562;2023-02-28T00:17:16;2.10;;;1.67;;
62332;SDS011;48624;49.812;8.562;2023-02-28T00:19:43;3.40;;;1.60;;
62332;SDS011;48624;49.812;8.562;2023-02-28T00:22:08;2.87;;;1.97;;
62332;SDS011;48624;49.812;8.562;2023-02-28T00:24:35;3.30;;;1.97;;
62332;SDS011;48624;49.812;8.562;2023-02-28T00:27:00;2.27;;;1.87;;
62332;SDS011;48624;49.812;8.562;2023-02-28T00:29:26;3.73;;;2.13;;
62332;SDS011;48624;49.812;8.562;2023-02-28T00:31:51;1.63;;;1.53;;
62332;SDS011;48624;49.812;8.562;2023-02-28T00:34:17;2.73;;;2.33;;
62332;SDS011;48624;49.812;8.562;2023-02-28T00:36:42;2.67;;;1.90;;
62332;SDS011;48624;49.812;8.562;2023-02-28T00:39:10;2.03;;;1.57;;
62332;SDS011;48624;49.812;8.562;2023-02-28T00:41:36;4.73;;;2.13;;
62332;SDS011;48624;49.812;8.562;2023-02-28T00:44:01;2.20;;;1.53;;
62332;SDS011;48624;49.812;8.562;2023-02-28T00:46:26;3.00;;;1.93;;
62332;SDS011;48624;49.812;8.562;2023-02-28T00:48:51;2.50;;;2.07;;
62332;SDS011;48624;49.812;8.562;2023-02-28T00:51:17;3.43;;;1.60;;
62332;SDS011;48624;49.812;8.562;2023-02-28T00:53:42;2.33;;;1.40;;
62332;SDS011;48624;49.812;8.562;2023-02-28T00:56:07;2.53;;;1.80;;
62332;SDS011;48624;49.812;8.562;2023-02-28T00:58:33;2.57;;;1.77;;
62332;SDS011;48624;49.812;8.562;2023-02-28T01:00:58;3.10;;;2.00;;
62332;SDS011;48624;49.812;8.562;2023-02-28T01:03:23;4.13;;;2.10;;
62332;SDS011;48624;49.812;8.562;2023-02-28T01:05:49;4.40;;;2.07;;
62332;SDS011;48624;49.812;8.562;2023-02-28T01:08:14;2.43;;;1.77;;
62332;SDS011;48624;49.812;8.562;2023-02-28T01:10:40;6.90;;;2.10;;
62332;SDS011;48624;49.812;8.562;2023-02-28T01:13:06;3.17;;;2.10;;
62332;SDS011;48624;49.812;8.562;2023-02-28T01:15:31;5.13;;;1.80;;
62332;SDS011;48624;49.812;8.562;2023-02-28T01:17:57;2.90;;;2.13;;
62332;SDS011;48624;49.812;8.562;2023-02-28T01:20:22;3.50;;;2.53;;
62332;SDS011;48624;49.812;8.562;2023-02-28T01:22:48;2.53;;;1.63;;
62332;SDS011;48624;49.812;8.562;2023-02-28T01:25:13;2.30;;;1.70;;
62332;SDS011;48624;49.812;8.562;2023-02-28T01:27:38;3.77;;;2.17;;
62332;SDS011;48624;49.812;8.562;2023-02-28T01:30:04;2.97;;;2.20;;
62332;SDS011;48624;49.812;8.562;2023-02-28T01:32:31;3.33;;;1.70;;
62332;SDS011;48624;49.812;8.562;2023-02-28T01:34:56;5.40;;;2.00;;
62332;SDS011;48624;49.812;8.562;2023-02-28T01:37:22;2.90;;;1.70;;
62332;SDS011;48624;49.812;8.562;2023-02-28T01:39:47;4.10;;;2.23;;
62332;SDS011;48624;49.812;8.562;2023-02-28T01:42:12;3.57;;;2.27;;
62332;SDS011;48624;49.812;8.562;2023-02-28T01:47:32;3.10;;;2.07;;
62332;SDS011;48624;49.812;8.562;2023-02-28T01:50:02;5.50;;;2.60;;
62332;SDS011;48624;49.812;8.562;2023-02-28T01:52:30;3.83;;;2.60;;
62332;SDS011;48624;49.812;8.562;2023-02-28T01:54:58;2.50;;;1.87;;
62332;SDS011;48624;49.812;8.562;2023-02-28T01:57:28;2.67;;;2.07;;
62332;SDS011;48624;49.812;8.562;2023-02-28T02:00:03;2.50;;;2.00;;
62332;SDS011;48624;49.812;8.562;2023-02-28T02:02:33;2.53;;;2.20;;
62332;SDS011;48624;49.812;8.562;2023-02-28T02:05:00;3.47;;;2.47;;
62332;SDS011;48624;49.812;8.562;2023-02-28T02:07:35;2.77;;;2.20;;
62332;SDS011;48624;49.812;8.562;2023-02-28T02:10:45;4.60;;;2.20;;
62332;SDS011;48624;49.812;8.562;2023-02-28T02:16:55;5.17;;;2.40;;
62332;SDS011;48624;49.812;8.562;2023-02-28T02:22:18;3.93;;;2.43;;
62332;SDS011;48624;49.812;8.562;2023-02-28T02:30:47;3.43;;;2.07;;
62332;SDS011;48624;49.812;8.562;2023-02-28T02:39:02;3.43;;;1.87;;
62332;SDS011;48624;49.812;8.562;2023-02-28T02:41:53;3.57;;;2.40;;
62332;SDS011;48624;49.812;8.562;2023-02-28T02:44:22;3.27;;;2.13;;
62332;SDS011;48624;49.812;8.562;2023-02-28T02:46:54;4.10;;;2.27;;
62332;SDS011;48624;49.812;8.562;2023-02-28T02:49:30;4.13;;;2.60;;
62332;SDS011;48624;49.812;8.562;2023-02-28T02:51:57;3.93;;;2.47;;
62332;SDS011;48624;49.812;8.562;2023-02-28T02:54:28;4.60;;;2.67;;
62332;SDS011;48624;49.812;8.562;2023-02-28T02:56:58;6.00;;;3.30;;
62332;SDS011;48624;49.812;8.562;2023-02-28T02:59:26;2.67;;;2.20;;
62332;SDS011;48624;49.812;8.562;2023-02-28T03:01:56;4.23;;;2.57;;
62332;SDS011;48624;49.812;8.562;2023-02-28T03:04:25;4.97;;;3.40;;
62332;SDS011;48624;49.812;8.562;2023-02-28T03:06:55;3.97;;;3.03;;
62332;SDS011;48624;49.812;8.562;2023-02-28T03:09:24;6.03;;;3.40;;
62332;SDS011;48624;49.812;8.562;2023-02-28T03:11:51;5.57;;;3.50;;
62332;SDS011;48624;49.812;8.562;2023-02-28T03:17:18;4.13;;;3.23;;
62332;SDS011;48624;49.812;8.562;2023-02-28T03:19:52;7.10;;;3.67;;
62332;SDS011;48624;49.812;8.562;2023-02-28T03:25:23;7.07;;;4.40;;
62332;SDS011;48624;49.812;8.562;2023-02-28T03:28:04;7.23;;;3.47;;
62332;SDS011;48624;49.812;8.562;2023-02-28T03:33:11;4.40;;;2.93;;
62332;SDS011;48624;49.812;8.562;2023-02-28T03:35:45;6.30;;;3.67;;
62332;SDS011;48624;49.812;8.562;2023-02-28T03:38:18;5.50;;;3.70;;
62332;SDS011;48624;49.812;8.562;2023-02-28T03:40:48;4.30;;;3.30;;
62332;SDS011;48624;49.812;8.562;2023-02-28T03:43:24;3.93;;;3.27;;
62332;SDS011;48624;49.812;8.562;2023-02-28T03:45:54;5.57;;;3.47;;
62332;SDS011;48624;49.812;8.562;2023-02-28T03:48:23;3.93;;;3.00;;
62332;SDS011;48624;49.812;8.562;2023-02-28T03:50:55;3.90;;;3.40;;
62332;SDS011;48624;49.812;8.562;2023-02-28T03:53:25;4.67;;;3.40;;
62332;SDS011;48624;49.812;8.562;2023-02-28T03:56:05;8.83;;;3.63;;
62332;SDS011;48624;49.812;8.562;2023-02-28T04:01:43;5.43;;;3.93;;
62332;SDS011;48624;49.812;8.562;2023-02-28T04:04:11;4.57;;;3.50;;
62332;SDS011;48624;49.812;8.562;2023-02-28T04:06:38;10.13;;;6.33;;
62332;SDS011;48624;49.812;8.562;2023-02-28T04:09:05;7.93;;;5.70;;
62332;SDS011;48624;49.812;8.562;2023-02-28T04:11:38;25.63;;;12.53;;
62332;SDS011;48624;49.812;8.562;2023-02-28T04:14:08;6.23;;;4.80;;
62332;SDS011;48624;49.812;8.562;2023-02-28T04:16:36;6.67;;;4.23;;
62332;SDS011;48624;49.812;8.562;2023-02-28T04:19:04;5.87;;;4.53;;
62332;SDS011;48624;49.812;8.562;2023-02-28T04:21:35;6.87;;;5.03;;
62332;SDS011;48624;49.812;8.562;2023-02-28T04:24:04;5.60;;;4.07;;
62332;SDS011;48624;49.812;8.562;2023-02-28T04:26:30;6.30;;;3.97;;
62332;SDS011;48624;49.812;8.562;2023-02-28T04:29:00;7.43;;;3.37;;
62332;SDS011;48624;49.812;8.562;2023-02-28T04:31:27;9.53;;;4.93;;
62332;SDS011;48624;49.812;8.562;2023-02-28T04:33:52;6.73;;;4.43;;
62332;SDS011;48624;49.812;8.562;2023-02-28T04:36:18;5.10;;;3.77;;
62332;SDS011;48624;49.812;8.562;2023-02-28T04:38:44;4.80;;;3.17;;
62332;SDS011;48624;49.812;8.562;2023-02-28T04:41:10;5.77;;;3.90;;
62332;SDS011;48624;49.812;8.562;2023-02-28T04:43:35;6.77;;;4.33;;
62332;SDS011;48624;49.812;8.562;2023-02-28T04:46:01;6.67;;;5.30;;
62332;SDS011;48624;49.812;8.562;2023-02-28T04:48:30;6.73;;;4.47;;
62332;SDS011;48624;49.812;8.562;2023-02-28T04:51:05;6.43;;;4.70;;
62332;SDS011;48624;49.812;8.562;2023-02-28T04:53:35;4.63;;;4.07;;
62332;SDS011;48624;49.812;8.562;2023-02-28T04:56:05;5.87;;;4.57;;
62332;SDS011;48624;49.812;8.562;2023-02-28T04:58:31;6.00;;;4.93;;
62332;SDS011;48624;49.812;8.562;2023-02-28T05:01:05;8.07;;;4.80;;
62332;SDS011;48624;49.812;8.562;2023-02-28T05:03:51;9.10;;;5.30;;
62332;SDS011;48624;49.812;8.562;2023-02-28T05:06:17;12.47;;;8.53;;
62332;SDS011;48624;49.812;8.562;2023-02-28T05:08:43;14.00;;;8.03;;
62332;SDS011;48624;49.812;8.562;2023-02-28T05:11:16;7.00;;;5.13;;
62332;SDS011;48624;49.812;8.562;2023-02-28T05:13:44;7.33;;;5.77;;
62332;SDS011;48624;49.812;8.562;2023-02-28T05:16:10;6.97;;;6.27;;
62332;SDS011;48624;49.812;8.562;2023-02-28T05:18:36;5.83;;;4.10;;
62332;SDS011;48624;49.812;8.562;2023-02-28T05:21:02;6.60;;;4.87;;
62332;SDS011;48624;49.812;8.562;2023-02-28T05:23:28;6.40;;;5.00;;
62332;SDS011;48624;49.812;8.562;2023-02-28T05:25:53;6.20;;;4.40;;
62332;SDS011;48624;49.812;8.562;2023-02-28T05:28:19;10.50;;;5.43;;
62332;SDS011;48624;49.812;8.562;2023-02-28T05:30:45;7.93;;;4.77;;
62332;SDS011;48624;49.812;8.562;2023-02-28T05:33:11;5.53;;;4.90;;
62332;SDS011;48624;49.812;8.562;2023-02-28T05:35:41;6.70;;;3.77;;
62332;SDS011;48624;49.812;8.562;2023-02-28T05:38:09;7.20;;;4.57;;
62332;SDS011;48624;49.812;8.562;2023-02-28T05:40:35;4.60;;;3.03;;
62332;SDS011;48624;49.812;8.562;2023-02-28T05:43:00;7.50;;;4.30;;
62332;SDS011;48624;49.812;8.562;2023-02-28T05:45:26;6.97;;;5.10;;
62332;SDS011;48624;49.812;8.562;2023-02-28T05:47:54;5.90;;;4.00;;
62332;SDS011;48624;49.812;8.562;2023-02-28T05:50:20;6.43;;;4.43;;
62332;SDS011;48624;49.812;8.562;2023-02-28T05:52:51;6.30;;;4.60;;
62332;SDS011;48624;49.812;8.562;2023-02-28T05:55:18;6.43;;;4.23;;
62332;SDS011;48624;49.812;8.562;2023-02-28T05:57:43;6.27;;;3.80;;
62332;SDS011;48624;49.812;8.562;2023-02-28T06:00:09;4.93;;;4.30;;
62332;SDS011;48624;49.812;8.562;2023-02-28T06:02:35;5.50;;;3.53;;
62332;SDS011;48624;49.812;8.562;2023-02-28T06:05:01;6.93;;;4.77;;
62332;SDS011;48624;49.812;8.562;2023-02-28T06:07:26;5.10;;;4.07;;
62332;SDS011;48624;49.812;8.562;2023-02-28T06:09:51;5.73;;;4.00;;
62332;SDS011;48624;49.812;8.562;2023-02-28T06:12:17;5.63;;;4.63;;
62332;SDS011;48624;49.812;8.562;2023-02-28T06:14:42;6.73;;;4.20;;
62332;SDS011;48624;49.812;8.562;2023-02-28T06:17:08;8.27;;;4.47;;
62332;SDS011;48624;49.812;8.562;2023-02-28T06:19:36;7.93;;;4.30;;
62332;SDS011;48624;49.812;8.562;2023-02-28T06:22:03;5.10;;;4.30;;
62332;SDS011;48624;49.812;8.562;2023-02-28T06:24:29;9.77;;;4.70;;
62332;SDS011;48624;49.812;8.562;2023-02-28T06:26:57;6.77;;;3.77;;
62332;SDS011;48624;49.812;8.562;2023-02-28T06:29:24;9.67;;;4.50;;
62332;SDS011;48624;49.812;8.562;2023-02-28T06:31:49;7.93;;;4.33;;
62332;SDS011;48624;49.812;8.562;2023-02-28T06:34:15;5.50;;;4.30;;
62332;SDS011;48624;49.812;8.562;2023-02-28T06:36:42;6.33;;;3.87;;
62332;SDS011;48624;49.812;8.562;2023-02-28T06:39:08;6.90;;;4.30;;
62332;SDS011;48624;49.812;8.562;2023-02-28T06:41:34;7.73;;;3.33;;
62332;SDS011;48624;49.812;8.562;2023-02-28T06:44:03;7.73;;;4.00;;
62332;SDS011;48624;49.812;8.562;2023-02-28T06:46:30;3.93;;;3.37;;
62332;SDS011;48624;49.812;8.562;2023-02-28T06:48:56;6.83;;;4.60;;
62332;SDS011;48624;49.812;8.562;2023-02-28T06:51:21;7.90;;;4.77;;
62332;SDS011;48624;49.812;8.562;2023-02-28T06:53:47;8.30;;;4.57;;
62332;SDS011;48624;49.812;8.562;2023-02-28T06:56:14;5.77;;;3.93;;
62332;SDS011;48624;49.812;8.562;2023-02-28T06:58:41;5.63;;;3.60;;
62332;SDS011;48624;49.812;8.562;2023-02-28T07:01:08;7.37;;;4.27;;
62332;SDS011;48624;49.812;8.562;2023-02-28T07:03:36;5.17;;;3.70;;
62332;SDS011;48624;49.812;8.562;2023-02-28T07:06:02;4.67;;;3.93;;
62332;SDS011;48624;49.812;8.562;2023-02-28T07:08:28;6.47;;;4.70;;
62332;SDS011;48624;49.812;8.562;2023-02-28T07:10:54;3.50;;;3.17;;
62332;SDS011;48624;49.812;8.562;2023-02-28T07:13:20;5.27;;;4.10;;
62332;SDS011;48624;49.812;8.562;2023-02-28T07:15:56;5.80;;;3.40;;
62332;SDS011;48624;49.812;8.562;2023-02-28T07:18:23;6.37;;;3.77;;
62332;SDS011;48624;49.812;8.562;2023-02-28T07:20:49;5.43;;;3.23;;
62332;SDS011;48624;49.812;8.562;2023-02-28T07:23:15;5.27;;;3.80;;
62332;SDS011;48624;49.812;8.562;2023-02-28T07:25:41;2.50;;;1.90;;
62332;SDS011;48624;49.812;8.562;2023-02-28T07:28:06;2.43;;;1.97;;
62332;SDS011;48624;49.812;8.562;2023-02-28T07:30:31;6.67;;;3.33;;
62332;SDS011;48624;49.812;8.562;2023-02-28T07:32:57;5.70;;;3.57;;
62332;SDS011;48624;49.812;8.562;2023-02-28T07:38:44;6.20;;;3.97;;
62332;SDS011;48624;49.812;8.562;2023-02-28T07:41:13;6.20;;;3.90;;
62332;SDS011;48624;49.812;8.562;2023-02-28T07:43:40;3.93;;;3.07;;
62332;SDS011;48624;49.812;8.562;2023-02-28T07:46:06;5.43;;;3.30;;
62332;SDS011;48624;49.812;8.562;2023-02-28T07:48:36;5.40;;;3.23;;
62332;SDS011;48624;49.812;8.562;2023-02-28T07:51:02;3.77;;;2.90;;
62332;SDS011;48624;49.812;8.562;2023-02-28T07:53:27;4.30;;;3.00;;
62332;SDS011;48624;49.812;8.562;2023-02-28T07:55:56;4.57;;;3.63;;
62332;SDS011;48624;49.812;8.562;2023-02-28T07:58:23;7.07;;;3.80;;
62332;SDS011;48624;49.812;8.562;2023-02-28T08:00:49;5.37;;;3.13;;
62332;SDS011;48624;49.812;8.562;2023-02-28T08:03:14;4.67;;;2.80;;
62332;SDS011;48624;49.812;8.562;2023-02-28T08:05:41;6.73;;;2.80;;
62332;SDS011;48624;49.812;8.562;2023-02-28T08:08:07;4.00;;;2.63;;
62332;SDS011;48624;49.812;8.562;2023-02-28T08:10:34;4.33;;;2.67;;
62332;SDS011;48624;49.812;8.562;2023-02-28T08:12:59;5.00;;;2.13;;
62332;SDS011;48624;49.812;8.562;2023-02-28T08:15:25;3.87;;;2.40;;
62332;SDS011;48624;49.812;8.562;2023-02-28T08:17:50;2.63;;;1.83;;
62332;SDS011;48624;49.812;8.562;2023-02-28T08:20:15;3.53;;;2.47;;
62332;SDS011;48624;49.812;8.562;2023-02-28T08:22:41;1.70;;;1.43;;
62332;SDS011;48624;49.812;8.562;2023-02-28T08:25:07;3.67;;;1.73;;
62332;SDS011;48624;49.812;8.562;2023-02-28T08:27:33;4.27;;;3.03;;
62332;SDS011;48624;49.812;8.562;2023-02-28T08:30:00;2.43;;;1.87;;
62332;SDS011;48624;49.812;8.562;2023-02-28T08:32:25;3.47;;;2.03;;
62332;SDS011;48624;49.812;8.562;2023-02-28T08:34:51;3.93;;;2.40;;
62332;SDS011;48624;49.812;8.562;2023-02-28T08:37:17;4.27;;;2.70;;
62332;SDS011;48624;49.812;8.562;2023-02-28T08:39:42;3.73;;;2.27;;
62332;SDS011;48624;49.812;8.562;2023-02-28T08:42:07;3.53;;;1.93;;
62332;SDS011;48624;49.812;8.562;2023-02-28T08:44:33;3.07;;;2.10;;
62332;SDS011;48624;49.812;8.562;2023-02-28T08:46:58;4.87;;;2.87;;
62332;SDS011;48624;49.812;8.562;2023-02-28T08:49:23;2.43;;;1.80;;
62332;SDS011;48624;49.812;8.562;2023-02-28T08:51:49;4.13;;;2.80;;
62332;SDS011;48624;49.812;8.562;2023-02-28T08:54:14;5.87;;;2.77;;
62332;SDS011;48624;49.812;8.562;2023-02-28T08:56:44;3.60;;;2.07;;
62332;SDS011;48624;49.812;8.562;2023-02-28T08:59:10;5.60;;;2.90;;
62332;SDS011;48624;49.812;8.562;2023-02-28T09:01:35;5.37;;;3.47;;
62332;SDS011;48624;49.812;8.562;2023-02-28T09:04:01;4.47;;;2.23;;
62332;SDS011;48624;49.812;8.562;2023-02-28T09:06:27;2.10;;;1.83;;
62332;SDS011;48624;49.812;8.562;2023-02-28T09:08:55;4.93;;;2.53;;
62332;SDS011;48624;49.812;8.562;2023-02-28T09:11:23;4.80;;;3.03;;
62332;SDS011;48624;49.812;8.562;2023-02-28T09:13:49;3.70;;;2.90;;
62332;SDS011;48624;49.812;8.562;2023-02-28T09:16:14;4.47;;;2.90;;
62332;SDS011;48624;49.812;8.562;2023-02-28T09:18:41;8.00;;;3.87;;
62332;SDS011;48624;49.812;8.562;2023-02-28T09:21:07;7.03;;;4.13;;
62332;SDS011;48624;49.812;8.562;2023-02-28T09:23:34;4.93;;;4.13;;
62332;SDS011;48624;49.812;8.562;2023-02-28T09:26:02;6.10;;;3.70;;
62332;SDS011;48624;49.812;8.562;2023-02-28T09:28:28;7.00;;;3.40;;
62332;SDS011;48624;49.812;8.562;2023-02-28T09:30:54;7.40;;;3.63;;
62332;SDS011;48624;49.812;8.562;2023-02-28T09:33:20;4.90;;;3.07;;
62332;SDS011;48624;49.812;8.562;2023-02-28T09:35:46;6.00;;;3.43;;
62332;SDS011;48624;49.812;8.562;2023-02-28T09:38:12;10.03;;;4.73;;
62332;SDS011;48624;49.812;8.562;2023-02-28T09:40:49;7.03;;;3.97;;
62332;SDS011;48624;49.812;8.562;2023-02-28T09:43:17;6.90;;;4.03;;
62332;SDS011;48624;49.812;8.562;2023-02-28T09:45:55;7.67;;;4.23;;
62332;SDS011;48624;49.812;8.562;2023-02-28T09:48:27;4.50;;;2.73;;
62332;SDS011;48624;49.812;8.562;2023-02-28T09:51:02;6.27;;;3.97;;
62332;SDS011;48624;49.812;8.562;2023-02-28T09:53:33;6.80;;;4.70;;
62332;SDS011;48624;49.812;8.562;2023-02-28T09:56:10;5.97;;;3.80;;
62332;SDS011;48624;49.812;8.562;2023-02-28T09:58:41;2.67;;;2.17;;
62332;SDS011;48624;49.812;8.562;2023-02-28T10:01:18;7.60;;;4.17;;
62332;SDS011;48624;49.812;8.562;2023-02-28T10:06:41;6.43;;;3.83;;
62332;SDS011;48624;49.812;8.562;2023-02-28T10:09:26;5.37;;;4.37;;
62332;SDS011;48624;49.812;8.562;2023-02-28T10:12:00;4.07;;;3.67;;
62332;SDS011;48624;49.812;8.562;2023-02-28T10:14:31;6.28;;;4.35;;
62332;SDS011;48624;49.812;8.562;2023-02-28T10:17:12;7.93;;;4.43;;
62332;SDS011;48624;49.812;8.562;2023-02-28T10:25:05;5.90;;;4.13;;
62332;SDS011;48624;49.812;8.562;2023-02-28T10:27:42;5.60;;;3.60;;
62332;SDS011;48624;49.812;8.562;2023-02-28T10:30:09;6.70;;;3.77;;
62332;SDS011;48624;49.812;8.562;2023-02-28T10:32:36;6.35;;;3.95;;
62332;SDS011;48624;49.812;8.562;2023-02-28T10:37:43;6.22;;;4.63;;
62332;SDS011;48624;49.812;8.562;2023-02-28T10:42:42;6.13;;;4.25;;
62332;SDS011;48624;49.812;8.562;2023-02-28T10:45:23;6.23;;;4.60;;
62332;SDS011;48624;49.812;8.562;2023-02-28T10:47:56;5.57;;;3.63;;
62332;SDS011;48624;49.812;8.562;2023-02-28T10:52:57;5.07;;;4.00;;
62332;SDS011;48624;49.812;8.562;2023-02-28T10:55:33;6.90;;;4.15;;
62332;SDS011;48624;49.812;8.562;2023-02-28T10:57:58;5.43;;;4.00;;
62332;SDS011;48624;49.812;8.562;2023-02-28T11:00:24;4.97;;;3.90;;
62332;SDS011;48624;49.812;8.562;2023-02-28T11:02:56;8.02;;;4.47;;
62332;SDS011;48624;49.812;8.562;2023-02-28T11:05:25;6.38;;;3.53;;
62332;SDS011;48624;49.812;8.562;2023-02-28T11:07:54;5.93;;;4.07;;
62332;SDS011;48624;49.812;8.562;2023-02-28T11:10:30;5.57;;;4.10;;
62332;SDS011;48624;49.812;8.562;2023-02-28T11:12:59;6.88;;;4.65;;
62332;SDS011;48624;49.812;8.562;2023-02-28T11:18:00;5.15;;;3.30;;
62332;SDS011;48624;49.812;8.562;2023-02-28T11:20:31;5.43;;;3.60;;
62332;SDS011;48624;49.812;8.562;2023-02-28T11:22:59;6.40;;;4.68;;
62332;SDS011;48624;49.812;8.562;2023-02-28T11:27:55;5.70;;;3.90;;
62332;SDS011;48624;49.812;8.562;2023-02-28T11:30:23;6.55;;;4.40;;
62332;SDS011;48624;49.812;8.562;2023-02-28T11:32:50;5.80;;;4.28;;
62332;SDS011;48624;49.812;8.562;2023-02-28T11:37:54;4.30;;;3.20;;
62332;SDS011;48624;49.812;8.562;2023-02-28T11:43:06;6.07;;;4.05;;
62332;SDS011;48624;49.812;8.562;2023-02-28T11:48:35;4.82;;;4.30;;
62332;SDS011;48624;49.812;8.562;2023-02-28T11:51:17;5.72;;;4.22;;
62332;SDS011;48624;49.812;8.562;2023-02-28T11:56:33;5.28;;;3.97;;
62332;SDS011;48624;49.812;8.562;2023-02-28T12:07:49;4.35;;;3.17;;
62332;SDS011;48624;49.812;8.562;2023-02-28T12:10:27;7.00;;;4.78;;
62332;SDS011;48624;49.812;8.562;2023-02-28T12:13:12;7.38;;;4.18;;
62332;SDS011;48624;49.812;8.562;2023-02-28T12:24:22;6.60;;;4.43;;
62332;SDS011;48624;49.812;8.562;2023-02-28T12:27:00;8.02;;;5.03;;
62332;SDS011;48624;49.812;8.562;2023-02-28T12:29:37;5.32;;;4.32;;
62332;SDS011;48624;49.812;8.562;2023-02-28T12:35:11;6.85;;;3.97;;
62332;SDS011;48624;49.812;8.562;2023-02-28T12:37:41;6.22;;;4.88;;
62332;SDS011;48624;49.812;8.562;2023-02-28T12:40:18;6.13;;;4.32;;
62332;SDS011;48624;49.812;8.562;2023-02-28T12:42:47;7.55;;;3.95;;
62332;SDS011;48624;49.812;8.562;2023-02-28T12:45:23;4.93;;;4.03;;
62332;SDS011;48624;49.812;8.562;2023-02-28T12:47:56;6.72;;;3.92;;
62332;SDS011;48624;49.812;8.562;2023-02-28T12:50:25;6.40;;;3.90;;
62332;SDS011;48624;49.812;8.562;2023-02-28T12:55:40;5.57;;;3.65;;
62332;SDS011;48624;49.812;8.562;2023-02-28T13:01:03;7.43;;;4.13;;
62332;SDS011;48624;49.812;8.562;2023-02-28T13:09:15;6.47;;;4.38;;
62332;SDS011;48624;49.812;8.562;2023-02-28T13:11:49;6.07;;;3.85;;
62332;SDS011;48624;49.812;8.562;2023-02-28T13:19:35;7.55;;;5.00;;
62332;SDS011;48624;49.812;8.562;2023-02-28T13:22:02;5.65;;;4.35;;
62332;SDS011;48624;49.812;8.562;2023-02-28T13:24:49;4.85;;;4.22;;
62332;SDS011;48624;49.812;8.562;2023-02-28T13:35:48;6.47;;;5.10;;
62332;SDS011;48624;49.812;8.562;2023-02-28T13:38:32;7.63;;;5.10;;
62332;SDS011;48624;49.812;8.562;2023-02-28T13:44:11;6.68;;;4.80;;
62332;SDS011;48624;49.812;8.562;2023-02-28T13:49:20;8.13;;;4.57;;
62332;SDS011;48624;49.812;8.562;2023-02-28T13:51:46;9.07;;;5.38;;
62332;SDS011;48624;49.812;8.562;2023-02-28T13:54:18;8.70;;;4.68;;
62332;SDS011;48624;49.812;8.562;2023-02-28T13:57:04;6.20;;;4.57;;
62332;SDS011;48624;49.812;8.562;2023-02-28T14:05:02;2.85;;;2.33;;
62332;SDS011;48624;49.812;8.562;2023-02-28T14:07:40;6.93;;;5.78;;
62332;SDS011;48624;49.812;8.562;2023-02-28T14:10:15;11.23;;;4.25;;
62332;SDS011;48624;49.812;8.562;2023-02-28T14:15:26;5.43;;;4.85;;
62332;SDS011;48624;49.812;8.562;2023-02-28T14:17:58;8.63;;;4.93;;
62332;SDS011;48624;49.812;8.562;2023-02-28T14:20:27;6.80;;;5.32;;
62332;SDS011;48624;49.812;8.562;2023-02-28T14:25:43;4.18;;;3.53;;
62332;SDS011;48624;49.812;8.562;2023-02-28T14:31:12;5.30;;;4.57;;
62332;SDS011;48624;49.812;8.562;2023-02-28T14:33:46;8.55;;;4.30;;
62332;SDS011;48624;49.812;8.562;2023-02-28T14:36:32;8.02;;;4.78;;
62332;SDS011;48624;49.812;8.562;2023-02-28T14:39:33;7.78;;;4.70;;
62332;SDS011;48624;49.812;8.562;2023-02-28T14:41:55;6.10;;;4.18;;
62332;SDS011;48624;49.812;8.562;2023-02-28T14:46:52;9.50;;;4.90;;
62332;SDS011;48624;49.812;8.562;2023-02-28T14:49:21;5.70;;;4.70;;
62332;SDS011;48624;49.812;8.562;2023-02-28T14:52:31;6.35;;;4.80;;
62332;SDS011;48624;49.812;8.562;2023-02-28T14:54:56;5.05;;;3.92;;
62332;SDS011;48624;49.812;8.562;2023-02-28T14:57:33;5.05;;;4.13;;
62332;SDS011;48624;49.812;8.562;2023-02-28T15:00:14;8.10;;;4.35;;
62332;SDS011;48624;49.812;8.562;2023-02-28T15:02:40;7.93;;;4.13;;
62332;SDS011;48624;49.812;8.562;2023-02-28T15:05:16;7.85;;;4.95;;
62332;SDS011;48624;49.812;8.562;2023-02-28T15:08:14;7.22;;;4.28;;
62332;SDS011;48624;49.812;8.562;2023-02-28T15:10:44;5.53;;;4.25;;
62332;SDS011;48624;49.812;8.562;2023-02-28T15:16:12;8.52;;;5.25;;
62332;SDS011;48624;49.812;8.562;2023-02-28T15:18:54;5.40;;;4.20;;
62332;SDS011;48624;49.812;8.562;2023-02-28T15:21:26;5.20;;;3.92;;
62332;SDS011;48624;49.812;8.562;2023-02-28T15:23:57;6.80;;;4.22;;
62332;SDS011;48624;49.812;8.562;2023-02-28T15:26:28;8.55;;;5.82;;
62332;SDS011;48624;49.812;8.562;2023-02-28T15:29:07;6.03;;;3.90;;
62332;SDS011;48624;49.812;8.562;2023-02-28T15:31:49;6.57;;;4.25;;
62332;SDS011;48624;49.812;8.562;2023-02-28T15:34:21;5.68;;;4.95;;
62332;SDS011;48624;49.812;8.562;2023-02-28T15:36:51;7.35;;;4.78;;
62332;SDS011;48624;49.812;8.562;2023-02-28T15:39:21;5.22;;;3.70;;
62332;SDS011;48624;49.812;8.562;2023-02-28T15:41:49;6.10;;;4.10;;
62332;SDS011;48624;49.812;8.562;2023-02-28T15:44:16;9.07;;;4.60;;
62332;SDS011;48624;49.812;8.562;2023-02-28T15:47:13;5.97;;;4.05;;
62332;SDS011;48624;49.812;8.562;2023-02-28T15:49:47;6.78;;;5.18;;
62332;SDS011;48624;49.812;8.562;2023-02-28T15:52:16;4.70;;;3.67;;
62332;SDS011;48624;49.812;8.562;2023-02-28T15:54:45;8.38;;;4.95;;
62332;SDS011;48624;49.812;8.562;2023-02-28T15:57:17;6.72;;;4.05;;
62332;SDS011;48624;49.812;8.562;2023-02-28T15:59:52;7.53;;;4.72;;
62332;SDS011;48624;49.812;8.562;2023-02-28T16:02:21;6.88;;;4.10;;
62332;SDS011;48624;49.812;8.562;2023-02-28T16:04:58;7.75;;;4.47;;
62332;SDS011;48624;49.812;8.562;2023-02-28T16:07:24;4.72;;;4.03;;
62332;SDS011;48624;49.812;8.562;2023-02-28T16:09:50;6.45;;;4.30;;
62332;SDS011;48624;49.812;8.562;2023-02-28T16:12:16;8.05;;;4.18;;
62332;SDS011;48624;49.812;8.562;2023-02-28T16:14:42;6.50;;;4.22;;
62332;SDS011;48624;49.812;8.562;2023-02-28T16:17:15;4.93;;;3.97;;
62332;SDS011;48624;49.812;8.562;2023-02-28T16:19:47;6.95;;;4.43;;
62332;SDS011;48624;49.812;8.562;2023-02-28T16:22:12;6.50;;;4.47;;
62332;SDS011;48624;49.812;8.562;2023-02-28T16:24:37;6.63;;;4.82;;
62332;SDS011;48624;49.812;8.562;2023-02-28T16:27:04;7.20;;;4.65;;
62332;SDS011;48624;49.812;8.562;2023-02-28T16:29:31;5.00;;;4.45;;
62332;SDS011;48624;49.812;8.562;2023-02-28T16:31:58;5.95;;;3.75;;
62332;SDS011;48624;49.812;8.562;2023-02-28T16:34:28;8.40;;;4.53;;
62332;SDS011;48624;49.812;8.562;2023-02-28T16:36:53;7.63;;;4.63;;
62332;SDS011;48624;49.812;8.562;2023-02-28T16:39:19;7.55;;;4.35;;
62332;SDS011;48624;49.812;8.562;2023-02-28T16:41:48;6.45;;;4.03;;
62332;SDS011;48624;49.812;8.562;2023-02-28T16:44:27;6.38;;;4.60;;
62332;SDS011;48624;49.812;8.562;2023-02-28T16:46:54;7.97;;;4.75;;
62332;SDS011;48624;49.812;8.562;2023-02-28T16:49:20;9.20;;;4.32;;
62332;SDS011;48624;49.812;8.562;2023-02-28T16:51:45;6.20;;;4.05;;
62332;SDS011;48624;49.812;8.562;2023-02-28T16:54:11;8.18;;;4.68;;
62332;SDS011;48624;49.812;8.562;2023-02-28T16:56:36;10.20;;;5.18;;
62332;SDS011;48624;49.812;8.562;2023-02-28T16:59:08;6.38;;;4.05;;
62332;SDS011;48624;49.812;8.562;2023-02-28T17:01:34;6.38;;;3.63;;
62332;SDS011;48624;49.812;8.562;2023-02-28T17:04:00;8.82;;;5.35;;
62332;SDS011;48624;49.812;8.562;2023-02-28T17:06:26;9.57;;;5.25;;
62332;SDS011;48624;49.812;8.562;2023-02-28T17:08:53;8.05;;;5.28;;
62332;SDS011;48624;49.812;8.562;2023-02-28T17:11:19;9.90;;;5.60;;
62332;SDS011;48624;49.812;8.562;2023-02-28T17:13:45;7.07;;;4.78;;
62332;SDS011;48624;49.812;8.562;2023-02-28T17:18:46;7.75;;;4.75;;
62332;SDS011;48624;49.812;8.562;2023-02-28T17:21:15;8.30;;;5.00;;